createdAt,value
2018-11-03T00:01:56.160Z,27.70
2018-11-03T00:04:34.109Z,28.30
2018-11-03T00:07:11.413Z,29.30
2018-11-03T00:09:50.167Z,27.87
2018-11-03T00:12:30.173Z,29.33
2018-11-03T00:15:07.653Z,30.20
2018-11-03T00:17:45.148Z,32.40
2018-11-03T00:20:22.749Z,28.50
2018-11-03T00:23:01.782Z,32.03
2018-11-03T00:25:39.832Z,28.83
2018-11-03T00:28:16.754Z,28.03
2018-11-03T00:30:58.956Z,28.20
2018-11-03T00:33:37.096Z,28.60
2018-11-03T00:36:16.004Z,27.67
2018-11-03T00:38:54.927Z,29.10
2018-11-03T00:41:31.881Z,27.70
2018-11-03T00:44:09.709Z,29.03
2018-11-03T00:46:47.519Z,26.87
2018-11-03T00:49:26.142Z,26.37
2018-11-03T00:52:03.384Z,25.20
2018-11-03T00:54:40.413Z,25.93
2018-11-03T00:57:17.968Z,24.73
2018-11-03T00:59:55.781Z,28.00
2018-11-03T01:02:33.209Z,26.00
2018-11-03T01:05:11.275Z,25.53
2018-11-03T01:07:49.736Z,25.93
2018-11-03T01:10:26.995Z,29.03
2018-11-03T01:13:05.168Z,27.57
2018-11-03T01:15:43.674Z,27.53
2018-11-03T01:18:20.649Z,26.30
2018-11-03T01:20:58.548Z,27.53
2018-11-03T01:23:35.292Z,28.73
2018-11-03T01:26:13.326Z,28.90
2018-11-03T01:31:50.063Z,75.87
2018-11-03T01:34:35.060Z,80.17
2018-11-03T01:37:29.030Z,79.77
2018-11-03T01:40:22.720Z,78.03
2018-11-03T01:43:20.366Z,79.10
2018-11-03T02:19:31.995Z,61.70
2018-11-03T02:22:50.568Z,66.67
2018-11-03T02:39:34.746Z,56.33
2018-11-03T02:42:42.003Z,61.30
2018-11-03T02:45:54.105Z,58.73
2018-11-03T02:48:56.007Z,69.33
2018-11-03T02:51:57.754Z,64.60
2018-11-03T03:02:57.442Z,64.23
2018-11-03T03:12:04.031Z,62.13
2018-11-03T03:14:51.233Z,64.03
2018-11-03T03:17:37.351Z,63.40
2018-11-03T03:23:31.399Z,65.40
2018-11-03T03:26:34.191Z,59.53
2018-11-03T03:29:28.697Z,66.23
2018-11-03T03:35:33.401Z,63.30
2018-11-03T03:41:32.604Z,49.87
2018-11-03T03:44:18.312Z,53.77
2018-11-03T03:47:06.497Z,53.80
2018-11-03T03:56:00.381Z,51.50
2018-11-03T04:00:07.318Z,49.77
2018-11-03T04:03:01.690Z,48.73
2018-11-03T04:05:47.245Z,57.23
2018-11-03T04:09:10.934Z,66.13
2018-11-03T04:15:20.024Z,70.97
2018-11-03T04:21:03.982Z,49.77
2018-11-03T04:24:00.980Z,58.53
2018-11-03T04:26:52.460Z,46.17
2018-11-03T04:36:05.216Z,49.73
2018-11-03T04:45:05.239Z,53.90
2018-11-03T04:48:01.385Z,49.47
2018-11-03T04:59:11.709Z,59.80
2018-11-03T05:02:01.651Z,42.90
2018-11-03T05:05:09.153Z,49.90
2018-11-03T05:08:09.816Z,39.03
2018-11-03T05:10:58.789Z,48.17
2018-11-03T05:22:31.423Z,56.27
2018-11-03T05:25:16.064Z,52.87
2018-11-03T05:28:04.583Z,56.47
2018-11-03T05:30:43.706Z,42.93
2018-11-03T05:39:57.454Z,46.63
2018-11-03T05:43:19.835Z,36.93
2018-11-03T05:46:10.367Z,58.27
2018-11-03T05:49:06.129Z,40.00
2018-11-03T05:51:55.439Z,40.50
2018-11-03T05:54:38.496Z,59.63
2018-11-03T05:57:25.338Z,50.50
2018-11-03T06:00:04.811Z,54.83
2018-11-03T06:02:46.121Z,45.20
2018-11-03T06:05:52.846Z,40.40
2018-11-03T06:08:44.011Z,40.83
2018-11-03T06:11:39.842Z,40.60
2018-11-03T06:14:35.658Z,34.30
2018-11-03T06:17:32.289Z,52.93
2018-11-03T06:23:56.810Z,54.17
2018-11-03T06:26:49.509Z,78.97
2018-11-03T06:29:47.833Z,46.30
2018-11-03T06:32:34.791Z,41.63
2018-11-03T06:38:21.837Z,39.23
2018-11-03T06:41:23.496Z,31.33
2018-11-03T06:47:23.120Z,32.17
2018-11-03T06:50:23.698Z,31.50
2018-11-03T06:56:59.226Z,29.57
2018-11-03T06:59:51.098Z,32.50
2018-11-03T07:16:47.249Z,30.37
2018-11-03T07:25:25.583Z,36.77
2018-11-03T07:28:18.835Z,32.70
2018-11-03T07:38:17.519Z,31.03
2018-11-03T07:41:16.197Z,37.87
2018-11-03T07:47:08.162Z,31.93
2018-11-03T07:50:03.250Z,31.17
2018-11-03T07:55:57.007Z,31.97
2018-11-03T07:58:45.963Z,30.97
2018-11-03T08:01:44.083Z,30.57
2018-11-03T08:04:33.758Z,30.00
2018-11-03T08:07:24.847Z,30.10
2018-11-03T08:10:22.148Z,30.50
2018-11-03T08:13:19.237Z,31.40
2018-11-03T08:29:44.539Z,103.23
2018-11-03T08:32:35.757Z,53.07
2018-11-03T08:38:23.452Z,61.40
2018-11-03T08:50:37.762Z,30.47
2018-11-03T08:53:30.714Z,33.37
2018-11-03T08:59:22.850Z,37.50
2018-11-03T09:02:23.659Z,29.97
2018-11-03T09:08:38.304Z,30.67
2018-11-03T09:17:52.482Z,29.60
2018-11-03T09:29:15.427Z,47.23
2018-11-03T09:32:07.558Z,59.53
2018-11-03T09:42:59.078Z,32.97
2018-11-03T10:16:06.853Z,28.27
2018-11-03T10:19:55.129Z,27.40
2018-11-03T11:32:42.908Z,36.17
2018-11-03T11:35:23.102Z,99.60
2018-11-03T11:38:02.434Z,93.43
2018-11-03T11:40:41.595Z,49.97
2018-11-03T11:43:22.668Z,34.97
2018-11-03T11:46:00.520Z,31.60
2018-11-03T11:48:38.105Z,30.90
2018-11-03T11:51:16.935Z,32.67
2018-11-03T11:53:55.148Z,32.00
2018-11-03T11:56:37.335Z,35.10
2018-11-03T11:59:17.795Z,64.33
2018-11-03T12:01:58.190Z,44.43
2018-11-03T12:04:45.604Z,30.37
2018-11-03T12:07:35.929Z,66.30
2018-11-03T12:10:14.459Z,68.17
2018-11-03T12:13:00.206Z,52.83
2018-11-03T12:15:38.354Z,44.77
2018-11-03T12:18:15.686Z,47.63
2018-11-03T12:20:54.871Z,45.03
2018-11-03T12:23:33.697Z,54.70
2018-11-03T12:26:12.004Z,55.70
2018-11-03T12:28:53.598Z,86.53
2018-11-03T12:31:32.698Z,67.77
2018-11-03T12:34:11.915Z,48.20
2018-11-03T12:36:50.446Z,41.90
2018-11-03T12:39:28.773Z,42.77
2018-11-03T12:42:10.122Z,32.47
2018-11-03T12:44:51.297Z,50.27
2018-11-03T12:47:29.139Z,47.50
2018-11-03T12:50:07.450Z,38.90
2018-11-03T12:52:44.995Z,40.70
2018-11-03T12:55:26.338Z,51.17
2018-11-03T12:58:05.222Z,52.77
2018-11-03T13:00:43.349Z,39.90
2018-11-03T13:03:21.488Z,32.47
2018-11-03T13:06:02.624Z,37.03
2018-11-03T13:08:44.097Z,40.80
2018-11-03T13:11:24.670Z,36.47
2018-11-03T13:14:04.024Z,37.03
2018-11-03T13:16:42.013Z,50.20
2018-11-03T13:19:21.355Z,39.83
2018-11-03T13:21:58.990Z,40.37
2018-11-03T13:24:41.372Z,42.30
2018-11-03T13:27:19.031Z,50.20
2018-11-03T13:29:57.072Z,52.23
2018-11-03T13:32:35.400Z,43.87
2018-11-03T13:35:16.141Z,42.30
2018-11-03T13:37:57.756Z,44.37
2018-11-03T13:40:35.263Z,70.40
2018-11-03T13:43:14.164Z,66.23
2018-11-03T13:45:56.552Z,42.13
2018-11-03T13:48:34.717Z,36.20
2018-11-03T13:51:23.055Z,38.67
2018-11-03T13:54:06.354Z,50.67
2018-11-03T13:56:48.279Z,47.37
2018-11-03T13:59:30.036Z,39.27
2018-11-03T14:02:08.508Z,40.47
2018-11-03T14:04:50.071Z,41.93
2018-11-03T14:07:31.423Z,47.33
2018-11-03T14:10:16.590Z,45.77
2018-11-03T14:12:56.792Z,38.07
2018-11-03T14:15:37.292Z,36.17
2018-11-03T14:18:18.425Z,38.73
2018-11-03T14:21:01.847Z,34.53
2018-11-03T14:23:40.539Z,37.93
2018-11-03T14:26:18.636Z,39.70
2018-11-03T14:28:58.092Z,35.67
2018-11-03T14:31:36.234Z,35.10
2018-11-03T14:34:16.795Z,33.53
2018-11-03T14:37:00.295Z,39.03
2018-11-03T14:39:42.636Z,38.33
2018-11-03T14:42:21.301Z,38.33
2018-11-03T14:45:05.689Z,36.80
2018-11-03T14:47:48.611Z,36.50
2018-11-03T14:50:35.253Z,36.67
2018-11-03T14:53:20.534Z,34.70
2018-11-03T14:56:04.572Z,41.23
2018-11-03T14:58:56.511Z,36.47
2018-11-03T15:01:41.154Z,36.33
2018-11-03T15:04:21.426Z,37.17
2018-11-03T15:07:07.900Z,34.90
2018-11-03T15:09:51.238Z,38.43
2018-11-03T15:12:40.945Z,37.17
2018-11-03T15:15:30.619Z,35.60
2018-11-03T15:18:15.284Z,37.00
2018-11-03T15:21:01.965Z,33.83
2018-11-03T15:23:45.893Z,35.60
2018-11-03T15:26:27.047Z,35.97
2018-11-03T15:29:06.938Z,34.43
2018-11-03T15:31:46.989Z,35.73
2018-11-03T15:34:30.966Z,34.57
2018-11-03T15:37:13.560Z,33.87
2018-11-03T15:39:55.307Z,34.37
2018-11-03T15:42:38.125Z,34.43
2018-11-03T15:45:20.098Z,35.60
2018-11-03T15:48:02.709Z,34.50
2018-11-03T15:50:55.396Z,34.67
2018-11-03T15:53:33.757Z,35.03
2018-11-03T15:56:10.966Z,34.40
2018-11-03T15:58:49.516Z,34.43
2018-11-03T16:01:32.290Z,34.80
2018-11-03T16:04:12.095Z,34.53
2018-11-03T16:06:50.286Z,34.43
2018-11-03T16:09:28.333Z,35.53
2018-11-03T16:12:06.699Z,34.27
2018-11-03T16:14:44.420Z,34.53
2018-11-03T16:17:22.699Z,34.80
2018-11-03T16:20:04.516Z,33.53
2018-11-03T16:22:47.969Z,34.40
2018-11-03T16:25:29.046Z,34.80
2018-11-03T16:28:07.617Z,34.23
2018-11-03T16:30:47.206Z,33.90
2018-11-03T16:33:24.624Z,52.03
2018-11-03T16:36:02.413Z,92.70
2018-11-03T16:38:41.703Z,52.90
2018-11-03T16:41:20.727Z,38.47
2018-11-03T16:43:59.517Z,34.97
2018-11-03T16:49:43.148Z,35.37
2018-11-03T16:52:22.022Z,36.20
2018-11-03T16:55:01.063Z,58.07
2018-11-03T16:57:40.956Z,107.23
2018-11-03T17:00:20.787Z,43.60
2018-11-03T17:03:00.932Z,36.40
2018-11-03T17:05:42.106Z,35.03
2018-11-03T17:08:19.200Z,35.23
2018-11-03T17:10:56.972Z,34.73
2018-11-03T17:13:34.071Z,35.37
2018-11-03T17:16:13.212Z,35.20
2018-11-03T17:18:51.043Z,33.87
2018-11-03T17:21:29.614Z,34.33
2018-11-03T17:24:07.864Z,35.67
2018-11-03T17:26:45.517Z,34.97
2018-11-03T17:29:23.678Z,34.47
2018-11-03T17:32:00.947Z,34.23
2018-11-03T17:34:39.581Z,34.40
2018-11-03T17:37:17.423Z,34.97
2018-11-03T17:39:54.513Z,38.90
2018-11-03T17:42:32.139Z,39.53
2018-11-03T17:45:09.258Z,36.37
2018-11-03T17:47:46.038Z,34.63
2018-11-03T17:50:23.375Z,34.07
2018-11-03T17:53:00.951Z,36.17
2018-11-03T17:55:38.611Z,34.17
2018-11-03T17:58:15.620Z,35.70
2018-11-03T18:00:55.575Z,34.20
2018-11-03T18:03:32.754Z,33.90
2018-11-03T18:06:10.673Z,34.03
2018-11-03T18:08:50.950Z,34.93
2018-11-03T18:11:27.969Z,33.23
2018-11-03T18:14:05.109Z,33.77
2018-11-03T18:16:42.039Z,34.10
2018-11-03T18:19:19.544Z,33.73
2018-11-03T18:21:56.220Z,33.20
2018-11-03T18:24:33.432Z,33.57
2018-11-03T18:27:11.076Z,32.73
2018-11-03T18:29:48.668Z,33.33
2018-11-03T18:32:24.984Z,33.13
2018-11-03T18:35:02.385Z,32.53
2018-11-03T18:37:39.026Z,33.13
2018-11-03T18:40:16.163Z,33.57
2018-11-03T18:42:53.740Z,34.50
2018-11-03T18:45:30.026Z,33.40
2018-11-03T18:48:07.044Z,33.63
2018-11-03T18:50:44.458Z,33.87
2018-11-03T18:53:20.936Z,33.60
2018-11-03T18:55:57.592Z,33.80
2018-11-03T18:58:34.574Z,33.73
2018-11-03T19:01:10.750Z,34.80
2018-11-03T19:03:47.794Z,34.77
2018-11-03T19:06:25.283Z,34.47
2018-11-03T19:09:02.178Z,34.80
2018-11-03T19:11:39.397Z,34.13
2018-11-03T19:14:15.741Z,33.17
2018-11-03T19:16:52.457Z,34.37
2018-11-03T19:19:29.621Z,34.37
2018-11-03T19:22:05.906Z,34.67
2018-11-03T19:24:42.383Z,33.83
2018-11-03T19:27:19.569Z,34.77
2018-11-03T19:29:56.471Z,35.27
2018-11-03T19:32:34.126Z,35.07
2018-11-03T19:35:11.446Z,35.73
2018-11-03T19:37:48.581Z,35.30
2018-11-03T19:40:25.496Z,39.53
2018-11-03T19:43:03.118Z,40.40
2018-11-03T19:45:40.440Z,38.47
2018-11-03T19:48:16.688Z,37.63
2018-11-03T19:50:53.454Z,40.37
2018-11-03T19:53:29.927Z,38.33
2018-11-03T19:56:07.354Z,41.13
2018-11-03T19:58:44.798Z,42.37
2018-11-03T20:01:21.345Z,43.20
2018-11-03T20:03:59.607Z,44.57
2018-11-03T20:06:36.007Z,45.60
2018-11-03T20:09:14.383Z,46.67
2018-11-03T20:11:53.340Z,48.03
2018-11-03T20:14:30.767Z,46.90
2018-11-03T20:17:07.369Z,48.77
2018-11-03T20:19:44.234Z,48.57
2018-11-03T20:22:21.393Z,49.40
2018-11-03T20:24:57.672Z,49.63
2018-11-03T20:27:34.519Z,51.00
2018-11-03T20:30:13.812Z,51.70
2018-11-03T20:32:52.002Z,51.97
2018-11-03T20:35:28.941Z,51.57
2018-11-03T20:38:06.554Z,55.00
2018-11-03T20:40:43.752Z,54.83
2018-11-03T20:43:20.425Z,54.73
2018-11-03T20:45:56.769Z,53.13
2018-11-03T20:48:33.782Z,53.50
2018-11-03T20:51:11.712Z,51.43
2018-11-03T20:53:48.126Z,50.97
2018-11-03T20:56:24.337Z,50.60
2018-11-03T20:59:00.906Z,51.00
2018-11-03T21:01:37.711Z,51.90
2018-11-03T21:04:13.931Z,52.80
2018-11-03T21:06:51.277Z,50.40
2018-11-03T21:09:27.569Z,51.47
2018-11-03T21:12:03.615Z,51.20
2018-11-03T21:14:40.814Z,50.33
2018-11-03T21:17:18.315Z,51.40
2018-11-03T21:19:55.094Z,50.37
2018-11-03T21:22:32.951Z,52.10
2018-11-03T21:25:09.667Z,52.60
2018-11-03T21:27:45.906Z,52.03
2018-11-03T21:30:22.439Z,52.03
2018-11-03T21:32:59.089Z,50.20
2018-11-03T21:35:35.314Z,51.10
2018-11-03T21:38:11.983Z,50.43
2018-11-03T21:40:48.488Z,51.70
2018-11-03T21:43:25.285Z,51.23
2018-11-03T21:46:02.445Z,51.30
2018-11-03T21:48:39.229Z,50.37
2018-11-03T21:51:18.279Z,52.07
2018-11-03T21:53:55.459Z,51.37
2018-11-03T21:56:32.006Z,52.13
2018-11-03T21:59:08.571Z,51.83
2018-11-03T22:01:46.418Z,51.23
2018-11-03T22:04:23.079Z,53.00
2018-11-03T22:07:00.223Z,51.97
2018-11-03T22:09:37.128Z,52.13
2018-11-03T22:12:14.474Z,53.30
2018-11-03T22:14:51.921Z,53.20
2018-11-03T22:17:29.055Z,53.40
2018-11-03T22:20:05.923Z,51.03
2018-11-03T22:22:43.854Z,51.73
2018-11-03T22:25:20.890Z,51.90
2018-11-03T22:27:58.324Z,51.23
2018-11-03T22:30:35.505Z,51.13
2018-11-03T22:33:12.603Z,51.50
2018-11-03T22:35:49.138Z,49.53
2018-11-03T22:38:26.876Z,51.20
2018-11-03T22:41:03.617Z,50.57
2018-11-03T22:43:40.456Z,50.33
2018-11-03T22:46:17.134Z,52.67
2018-11-03T22:48:55.667Z,52.10
2018-11-03T22:51:34.893Z,50.77
2018-11-03T22:54:12.038Z,57.50
2018-11-03T22:56:48.616Z,183.03
2018-11-03T22:59:38.412Z,96.27
